createdAt,value
2022-11-13T00:02:22.006Z,4.25
2022-11-13T00:07:42.065Z,4.28
2022-11-13T00:13:02.475Z,4.28
2022-11-13T00:18:22.743Z,4.29
2022-11-13T00:23:43.643Z,4.23
2022-11-13T00:29:04.348Z,4.19
2022-11-13T00:34:46.416Z,4.21
2022-11-13T00:40:05.742Z,4.22
2022-11-13T00:45:28.394Z,4.21
2022-11-13T00:50:51.424Z,4.36
2022-11-13T00:56:13.631Z,4.40
2022-11-13T01:01:37.976Z,4.62
2022-11-13T01:06:58.184Z,4.76
2022-11-13T01:12:19.192Z,4.85
2022-11-13T01:17:39.548Z,4.94
2022-11-13T01:23:02.282Z,4.92
2022-11-13T01:28:22.720Z,4.99
2022-11-13T01:33:46.821Z,4.85
2022-11-13T01:39:10.754Z,4.89
2022-11-13T01:44:49.966Z,4.88
2022-11-13T01:50:17.820Z,4.96
2022-11-13T01:55:40.486Z,5.01
2022-11-13T02:01:00.916Z,5.03
2022-11-13T02:06:33.852Z,5.08
2022-11-13T02:11:58.377Z,5.05
2022-11-13T02:17:26.449Z,5.01
2022-11-13T02:23:08.177Z,5.05
2022-11-13T02:28:28.685Z,5.05
2022-11-13T02:33:50.829Z,5.05
2022-11-13T02:39:13.284Z,5.02
2022-11-13T02:44:36.027Z,5.01
2022-11-13T02:49:56.475Z,5.00
2022-11-13T02:55:17.051Z,5.00
2022-11-13T03:00:37.528Z,4.93
2022-11-13T03:05:58.105Z,4.95
2022-11-13T03:11:18.794Z,4.91
2022-11-13T03:16:38.986Z,4.92
2022-11-13T03:22:01.562Z,4.88
2022-11-13T03:27:22.543Z,4.85
2022-11-13T03:32:42.851Z,4.86
2022-11-13T03:38:03.307Z,4.86
2022-11-13T03:43:24.249Z,4.81
2022-11-13T03:48:44.778Z,4.74
2022-11-13T03:54:05.268Z,4.67
2022-11-13T03:59:25.754Z,4.62
2022-11-13T04:04:46.458Z,4.57
2022-11-13T04:10:07.206Z,4.56
2022-11-13T04:15:28.698Z,4.52
2022-11-13T04:20:49.085Z,4.52
2022-11-13T04:26:09.601Z,4.51
2022-11-13T04:31:30.071Z,4.50
2022-11-13T04:36:50.646Z,4.49
2022-11-13T04:42:32.189Z,4.43
2022-11-13T04:47:52.567Z,4.36
2022-11-13T04:53:12.916Z,4.34
2022-11-13T04:58:33.334Z,4.34
2022-11-13T05:03:54.390Z,4.32
2022-11-13T05:09:17.358Z,4.34
2022-11-13T05:14:38.804Z,4.37
2022-11-13T05:19:59.850Z,4.40
2022-11-13T05:25:20.274Z,4.42
2022-11-13T05:30:41.545Z,4.38
2022-11-13T05:36:10.082Z,4.38
2022-11-13T05:41:31.826Z,4.31
2022-11-13T05:46:54.917Z,4.24
2022-11-13T05:52:17.875Z,4.27
2022-11-13T05:57:38.019Z,4.24
2022-11-13T06:03:00.134Z,4.20
2022-11-13T06:08:20.426Z,4.17
2022-11-13T06:13:43.645Z,4.11
2022-11-13T06:19:06.628Z,4.05
2022-11-13T06:24:26.831Z,4.00
2022-11-13T06:29:47.095Z,3.94
2022-11-13T06:35:07.859Z,3.99
2022-11-13T06:40:28.057Z,4.10
2022-11-13T06:45:49.587Z,4.18
2022-11-13T06:51:16.990Z,4.27
2022-11-13T06:56:43.718Z,4.32
2022-11-13T07:02:04.221Z,4.27
2022-11-13T07:07:24.666Z,4.18
2022-11-13T07:12:51.959Z,4.21
2022-11-13T07:18:24.121Z,4.20
2022-11-13T07:23:48.076Z,4.18
2022-11-13T07:29:08.167Z,4.26
2022-11-13T07:34:28.712Z,4.33
2022-11-13T07:39:49.157Z,4.31
2022-11-13T07:45:10.034Z,4.23
2022-11-13T07:50:33.517Z,4.23
2022-11-13T07:55:54.956Z,4.27
2022-11-13T08:01:15.680Z,4.40
2022-11-13T08:06:39.694Z,4.48
2022-11-13T08:12:00.375Z,4.54
2022-11-13T08:17:20.876Z,4.62
2022-11-13T08:22:41.338Z,4.63
2022-11-13T08:28:01.894Z,4.73
2022-11-13T08:33:22.463Z,4.78
2022-11-13T08:38:42.994Z,4.98
2022-11-13T08:44:06.564Z,5.11
2022-11-13T08:49:27.246Z,5.24
2022-11-13T08:54:48.027Z,5.38
2022-11-13T09:00:14.009Z,5.53
2022-11-13T09:05:36.871Z,5.76
2022-11-13T09:11:02.044Z,6.03
2022-11-13T09:16:25.450Z,6.22
2022-11-13T09:21:48.106Z,6.42
2022-11-13T09:27:11.060Z,6.57
2022-11-13T09:32:31.341Z,6.63
2022-11-13T09:37:52.584Z,6.67
2022-11-13T09:43:35.120Z,7.09
2022-11-13T09:49:11.693Z,7.12
2022-11-13T09:54:33.840Z,7.20
2022-11-13T10:00:12.986Z,7.30
2022-11-13T10:05:46.585Z,7.43
2022-11-13T10:11:45.656Z,7.56
2022-11-13T10:17:11.344Z,7.68
2022-11-13T10:22:42.176Z,7.83
2022-11-13T10:28:43.104Z,8.01
2022-11-13T10:33:57.507Z,8.22
2022-11-13T10:39:17.825Z,8.43
2022-11-13T10:44:41.110Z,8.58
2022-11-13T10:50:29.435Z,8.72
2022-11-13T10:55:56.396Z,8.83
2022-11-13T11:01:23.317Z,9.01
2022-11-13T11:12:30.666Z,9.39
2022-11-13T11:18:00.454Z,11.41
2022-11-13T11:23:49.594Z,12.58
2022-11-13T11:29:25.663Z,13.29
2022-11-13T11:35:14.096Z,13.70
2022-11-13T11:40:40.567Z,14.65
2022-11-13T11:46:03.543Z,15.31
2022-11-13T11:51:26.240Z,15.66
2022-11-13T11:56:58.275Z,16.04
2022-11-13T12:02:40.662Z,16.17
2022-11-13T12:08:12.205Z,15.63
2022-11-13T12:13:34.053Z,15.52
2022-11-13T12:19:09.089Z,15.34
2022-11-13T12:24:53.991Z,15.39
2022-11-13T12:30:20.451Z,15.52
2022-11-13T12:35:41.465Z,15.63
2022-11-13T12:41:08.021Z,15.76
2022-11-13T12:46:39.646Z,16.01
2022-11-13T12:52:06.577Z,16.28
2022-11-13T12:57:30.616Z,16.65
2022-11-13T13:03:19.249Z,16.97
2022-11-13T13:09:11.518Z,17.07
2022-11-13T13:14:37.635Z,17.74
2022-11-13T13:20:04.754Z,18.68
2022-11-13T13:25:27.055Z,19.69
2022-11-13T13:31:16.911Z,20.11
2022-11-13T13:36:51.720Z,20.04
2022-11-13T13:42:37.136Z,20.16
2022-11-13T13:47:57.818Z,20.08
2022-11-13T13:53:25.243Z,19.92
2022-11-13T13:58:48.029Z,19.90
2022-11-13T14:04:15.143Z,19.69
2022-11-13T14:09:38.421Z,19.83
2022-11-13T14:14:59.199Z,19.79
2022-11-13T14:20:23.809Z,19.41
2022-11-13T14:25:44.486Z,18.89
2022-11-13T14:31:07.535Z,17.29
2022-11-13T14:36:31.591Z,16.24
2022-11-13T14:42:01.408Z,15.43
2022-11-13T14:47:25.471Z,14.90
2022-11-13T14:52:59.150Z,14.46
2022-11-13T14:58:32.165Z,13.97
2022-11-13T15:03:57.819Z,13.51
2022-11-13T15:09:20.159Z,13.08
2022-11-13T15:14:41.636Z,12.71
2022-11-13T15:20:09.485Z,12.33
2022-11-13T15:25:29.934Z,11.94
2022-11-13T15:30:50.270Z,11.64
2022-11-13T15:36:10.807Z,11.38
2022-11-13T15:41:32.939Z,11.14
2022-11-13T15:46:58.248Z,10.91
2022-11-13T15:52:18.917Z,10.66
2022-11-13T15:57:40.202Z,10.42
2022-11-13T16:03:00.875Z,10.22
2022-11-13T16:08:21.188Z,10.00
2022-11-13T16:13:42.593Z,9.82
2022-11-13T16:19:12.024Z,9.55
2022-11-13T16:24:32.159Z,9.35
2022-11-13T16:29:55.657Z,9.14
2022-11-13T16:35:19.968Z,8.92
2022-11-13T16:40:44.518Z,8.76
2022-11-13T16:46:28.035Z,8.89
2022-11-13T16:51:52.050Z,9.04
2022-11-13T16:57:13.439Z,9.11
2022-11-13T17:02:40.278Z,8.96
2022-11-13T17:08:01.750Z,8.86
2022-11-13T17:13:22.051Z,8.76
2022-11-13T17:18:43.450Z,8.72
2022-11-13T17:24:04.048Z,8.66
2022-11-13T17:29:27.771Z,8.62
2022-11-13T17:34:48.266Z,8.63
2022-11-13T17:40:11.581Z,8.59
2022-11-13T17:45:31.835Z,8.56
2022-11-13T17:50:59.636Z,8.48
2022-11-13T17:56:20.661Z,8.40
2022-11-13T18:01:40.917Z,8.36
2022-11-13T18:07:01.111Z,8.35
2022-11-13T18:12:23.700Z,8.34
2022-11-13T18:17:46.736Z,8.29
2022-11-13T18:23:07.216Z,8.28
2022-11-13T18:28:27.377Z,8.31
2022-11-13T18:33:48.158Z,8.28
2022-11-13T18:39:16.206Z,8.29
2022-11-13T18:44:39.254Z,8.31
2022-11-13T18:50:07.183Z,8.29
2022-11-13T18:55:29.928Z,8.21
2022-11-13T19:00:50.860Z,8.20
2022-11-13T19:06:15.172Z,8.19
2022-11-13T19:11:35.392Z,8.25
2022-11-13T19:16:55.900Z,8.25
2022-11-13T19:22:16.268Z,8.25
2022-11-13T19:27:36.590Z,8.27
2022-11-13T19:32:58.352Z,8.29
2022-11-13T19:38:21.636Z,8.26
2022-11-13T19:43:41.706Z,8.28
2022-11-13T19:49:04.137Z,8.31
2022-11-13T19:54:24.447Z,8.33
2022-11-13T19:59:44.471Z,8.33
2022-11-13T20:05:09.580Z,8.35
2022-11-13T20:10:31.118Z,8.34
2022-11-13T20:15:54.785Z,8.33
2022-11-13T20:21:25.137Z,8.30
2022-11-13T20:26:47.874Z,8.27
2022-11-13T20:32:10.147Z,8.26
2022-11-13T20:37:30.572Z,8.29
2022-11-13T20:42:52.983Z,8.29
2022-11-13T20:48:14.226Z,8.26
2022-11-13T20:53:39.332Z,8.25
2022-11-13T20:58:59.769Z,8.33
2022-11-13T21:04:21.308Z,8.50
2022-11-13T21:09:48.705Z,8.41
2022-11-13T21:15:10.507Z,8.35
2022-11-13T21:20:30.966Z,8.31
2022-11-13T21:25:59.562Z,8.32
2022-11-13T21:31:20.721Z,8.30
2022-11-13T21:36:43.052Z,8.32
2022-11-13T21:42:03.616Z,8.71
2022-11-13T21:47:26.878Z,8.55
2022-11-13T21:52:52.283Z,8.49
2022-11-13T21:58:13.807Z,8.47
2022-11-13T22:03:34.212Z,8.46
2022-11-13T22:09:00.381Z,8.48
2022-11-13T22:14:20.449Z,8.47
2022-11-13T22:19:40.521Z,8.45
2022-11-13T22:25:04.077Z,8.44
2022-11-13T22:30:24.107Z,8.39
2022-11-13T22:35:44.525Z,8.40
2022-11-13T22:41:22.925Z,8.35
2022-11-13T22:46:45.493Z,8.24
2022-11-13T22:52:05.854Z,8.13
2022-11-13T22:57:26.122Z,7.94
2022-11-13T23:02:47.573Z,7.81
2022-11-13T23:08:07.897Z,7.82
2022-11-13T23:13:28.453Z,7.93
2022-11-13T23:18:50.092Z,8.04
2022-11-13T23:24:11.023Z,8.08
2022-11-13T23:29:33.572Z,8.14
2022-11-13T23:34:59.179Z,8.18
2022-11-13T23:40:20.114Z,8.23
2022-11-13T23:45:40.381Z,8.28
2022-11-13T23:51:01.852Z,8.31
2022-11-13T23:56:25.414Z,8.33
